Lander, WY

3:39 AM MST on December 26, 2014 (GMT -0700)
APRSWXNET Sinks Canyon Center WY US | Change Station
CLOSE
Current Station
Personal Weather Station
Location: Lander, WY
Elevation: 5807 ft
Nearby Weather Stations

Elev 5807 ft 42.78 °N, 108.77 °W | Updated 46 minutes ago

Snow
Snow
16 °F
Feels Like 16 °F
N
0
Wind Variable Wind from NE
Gusts 0.0 mph

Today
High -- | Low -- °F
--% Chance of Precip.
Yesterday
High -- | Low -- °F
Precip. -- in
7:44 AM 4:46 PM
Waxing Crescent, 24% visible
Pressure 29.89 in
Visibility 2.5 miles
Clouds Mostly Cloudy 900 ft
Overcast 3300 ft
Windchill 16 °F
Dew Point 14 °F
Humidity 90%
Rainfall 0.00 in
Snow Depth Not available.
UV 0 out of 12
Pollen .10 out of 12
Air Quality Not available.
Flu Activity Not available.
SPECI KLND 261033Z AUTO 00000KT 2 1/2SM -SN BR BKN009 OVC033 M08/M10 A2989 RMK AO2 P0000 T10831100

More Conditions Fewer Conditions

Pressure 29.89 in
Visibility 2.5 miles
Clouds Mostly Cloudy 900 ft
Overcast 3300 ft
Windchill 16 °F
Dew Point 14 °F
Humidity 90%
Rainfall 0.00 in
Snow Depth Not available.
UV 0 out of 12
Pollen .10 out of 12
Air Quality Not available.
Flu Activity Not available.
SPECI KLND 261033Z AUTO 00000KT 2 1/2SM -SN BR BKN009 OVC033 M08/M10 A2989 RMK AO2 P0000 T10831100

More Conditions Fewer Conditions

10-Day Weather Forecast

Almanac

Astronomy

Dec. 26, 2014 Rise Set
Actual Time
Civil Twilight
Nautical Twilight
Astronomical Twilight
Moon
Length of Visible Light
Length of Day
Tomorrow will be .
, % of the Moon is Illuminated

Today's Extremes

State Highs State Lows

Community

WunderPhotos

Upload Photos

1,780,573 photos uploaded!

WunderBlogs® & News

Nearby

Air Quality

  Air Quality AQ Index Pollutant
Not available.

Snow Depth

Station Depth Elevation

Earthquake Activity

City Distance Mag. Time & Date
Minimum magnitude displayed is 2.5.

Coastal Water Temperatures

Place Temperature

Nearby Weather Stations